La Paz, Argentina
Current Conditions -  °F | °C
As of 11:00 PM on Wednesday 17 Dec 2014 (Local Time) from SAME Reporting Station
Thunderstorm Thunderstorm  
Wind Chill: 24°   Ceiling: Unl
Heat Index: 24°   Visibility: 6mi
Dew Point: 10°   Wind: 3mph
Humidity: 41%   Direction: 180°S
Pressure: 29.97"   Gusts: NA
Location:  33.47°S, 67.55°W
Report Text: SAME 180200Z 18003KT 9999 VCTS SCT040FEW045CB 24/10 Q1015
Loading
Personal Weather Stations






























Interactive Weather Map New forecast layout! Learn more

10-Day Weather Forecast

Advertisements
Track Severe Weather on mobile